createdAt,value
2023-03-27T00:01:13.369Z,68.86
2023-03-27T00:03:42.983Z,68.79
2023-03-27T00:06:16.643Z,68.55
2023-03-27T00:08:46.624Z,68.92
2023-03-27T00:11:15.261Z,68.49
2023-03-27T00:13:50.791Z,69.11
2023-03-27T00:16:21.887Z,69.44
2023-03-27T00:18:49.682Z,69.32
2023-03-27T00:21:17.377Z,69.44
2023-03-27T00:23:45.054Z,69.51
2023-03-27T00:26:13.007Z,68.59
2023-03-27T00:28:42.251Z,69.49
2023-03-27T00:31:12.095Z,68.85
2023-03-27T00:33:40.578Z,69.13
2023-03-27T00:36:09.593Z,68.94
2023-03-27T00:38:39.822Z,68.94
2023-03-27T00:41:08.894Z,69.52
2023-03-27T00:43:43.840Z,69.73
2023-03-27T00:46:37.558Z,69.12
2023-03-27T00:49:09.775Z,69.76
2023-03-27T00:51:41.234Z,70.25
2023-03-27T00:54:10.963Z,70.24
2023-03-27T00:56:39.068Z,69.54
2023-03-27T00:59:12.687Z,70.34
2023-03-27T01:01:40.727Z,69.84
2023-03-27T01:04:09.258Z,69.65
2023-03-27T01:06:39.324Z,70.24
2023-03-27T01:09:09.376Z,70.40
2023-03-27T01:12:06.239Z,70.51
2023-03-27T01:15:03.762Z,70.51
2023-03-27T01:17:37.504Z,70.86
2023-03-27T01:20:12.203Z,70.87
2023-03-27T01:23:08.419Z,70.52
2023-03-27T01:25:56.785Z,71.24
2023-03-27T01:28:49.680Z,71.00
2023-03-27T01:31:57.284Z,70.59
2023-03-27T01:34:48.456Z,70.90
2023-03-27T01:37:35.241Z,71.21
2023-03-27T01:40:15.257Z,70.85
2023-03-27T01:42:49.653Z,70.82
2023-03-27T01:45:30.422Z,71.55
2023-03-27T01:48:13.180Z,71.48
2023-03-27T01:50:52.175Z,71.05
2023-03-27T01:53:34.301Z,70.88
2023-03-27T01:56:27.446Z,71.26
2023-03-27T01:59:04.197Z,71.48
2023-03-27T02:01:38.020Z,71.67
2023-03-27T02:04:13.859Z,71.74
2023-03-27T02:06:45.963Z,71.63
2023-03-27T02:09:29.817Z,71.76
2023-03-27T02:12:32.138Z,71.84
2023-03-27T02:15:24.045Z,72.01
2023-03-27T02:18:08.099Z,71.78
2023-03-27T02:20:38.194Z,71.94
2023-03-27T02:23:07.791Z,72.19
2023-03-27T02:25:39.772Z,72.28
2023-03-27T02:28:10.390Z,72.50
2023-03-27T02:31:06.092Z,72.14
2023-03-27T02:33:58.835Z,72.85
2023-03-27T02:36:55.164Z,73.18
2023-03-27T02:39:50.650Z,73.35
2023-03-27T02:42:29.789Z,73.58
2023-03-27T02:45:14.114Z,73.63
2023-03-27T02:47:52.765Z,73.81
2023-03-27T02:50:27.872Z,74.05
2023-03-27T02:53:05.118Z,74.28
2023-03-27T02:55:43.112Z,73.60
2023-03-27T02:58:19.473Z,74.24
2023-03-27T03:01:00.159Z,74.37
2023-03-27T03:04:25.249Z,74.55
2023-03-27T03:06:59.193Z,74.82
2023-03-27T03:09:27.383Z,74.97
2023-03-27T03:11:54.959Z,74.66
2023-03-27T03:14:44.129Z,74.55
2023-03-27T03:17:13.589Z,74.85
2023-03-27T03:19:41.577Z,74.58
2023-03-27T03:22:09.642Z,74.38
2023-03-27T03:24:42.483Z,74.42
2023-03-27T03:27:17.269Z,74.27
2023-03-27T03:29:57.383Z,73.97
2023-03-27T03:32:28.288Z,73.95
2023-03-27T03:34:57.179Z,74.20
2023-03-27T03:37:28.902Z,73.93
2023-03-27T03:39:58.524Z,73.99
2023-03-27T03:42:26.100Z,73.79
2023-03-27T03:44:53.933Z,73.28
2023-03-27T03:47:23.167Z,73.65
2023-03-27T03:49:51.325Z,73.51
2023-03-27T03:52:18.994Z,73.27
2023-03-27T03:54:47.060Z,73.43
2023-03-27T03:57:15.026Z,73.25
2023-03-27T03:59:44.786Z,73.02
2023-03-27T04:02:37.222Z,73.21
2023-03-27T04:05:12.670Z,73.32
2023-03-27T04:07:41.385Z,73.28
2023-03-27T04:10:31.958Z,73.67
2023-03-27T04:13:03.125Z,73.94
2023-03-27T04:15:33.927Z,74.14
2023-03-27T04:18:16.547Z,74.41
2023-03-27T04:20:49.691Z,74.21
2023-03-27T04:23:19.278Z,74.31
2023-03-27T04:25:47.278Z,74.66
2023-03-27T04:28:21.505Z,74.64
2023-03-27T04:30:58.346Z,74.86
2023-03-27T04:33:52.156Z,74.56
2023-03-27T04:36:52.557Z,74.51
2023-03-27T04:39:25.155Z,74.69
2023-03-27T04:41:53.942Z,74.84
2023-03-27T04:44:21.586Z,74.62
2023-03-27T04:46:49.291Z,74.75
2023-03-27T04:49:19.239Z,74.92
2023-03-27T04:51:58.183Z,74.79
2023-03-27T04:54:31.744Z,75.05
2023-03-27T04:57:02.150Z,75.01
2023-03-27T04:59:32.053Z,75.30
2023-03-27T05:02:18.439Z,75.07
2023-03-27T05:04:52.247Z,75.25
2023-03-27T05:07:20.427Z,74.85
2023-03-27T05:09:48.697Z,75.19
2023-03-27T05:12:16.571Z,74.20
2023-03-27T05:14:50.347Z,74.58
2023-03-27T05:17:41.829Z,74.68
2023-03-27T05:20:19.324Z,74.76
2023-03-27T05:22:48.389Z,74.88
2023-03-27T05:25:22.443Z,74.91
2023-03-27T05:27:51.366Z,74.76
2023-03-27T05:30:21.985Z,74.72
2023-03-27T05:32:54.351Z,74.61
2023-03-27T05:35:28.838Z,75.11
2023-03-27T05:37:59.069Z,75.00
2023-03-27T05:40:32.626Z,75.00
2023-03-27T05:43:01.029Z,74.87
2023-03-27T05:45:31.055Z,75.19
2023-03-27T05:48:01.223Z,74.99
2023-03-27T05:50:35.017Z,75.09
2023-03-27T05:53:10.189Z,75.24
2023-03-27T05:55:42.425Z,75.69
2023-03-27T05:58:11.858Z,75.61
2023-03-27T06:00:44.479Z,76.15
2023-03-27T06:03:20.494Z,76.29
2023-03-27T06:06:12.620Z,76.22
2023-03-27T06:08:43.384Z,76.41
2023-03-27T06:11:13.836Z,76.62
2023-03-27T06:13:45.815Z,76.51
2023-03-27T06:16:20.814Z,76.42
2023-03-27T06:19:17.671Z,76.67
2023-03-27T06:21:51.090Z,76.53
2023-03-27T06:24:18.929Z,76.40
2023-03-27T06:26:46.772Z,77.15
2023-03-27T06:29:14.425Z,76.88
2023-03-27T06:31:48.459Z,76.80
2023-03-27T06:34:45.352Z,76.88
2023-03-27T06:37:51.460Z,77.17
2023-03-27T06:40:23.840Z,76.77
2023-03-27T06:42:56.441Z,76.62
2023-03-27T06:45:38.695Z,76.24
2023-03-27T06:48:25.100Z,76.47
2023-03-27T06:50:56.393Z,76.51
2023-03-27T06:53:27.884Z,76.31
2023-03-27T06:55:57.280Z,75.47
2023-03-27T06:58:27.612Z,74.86
2023-03-27T07:00:56.093Z,74.22
2023-03-27T07:03:24.106Z,73.89
2023-03-27T07:06:10.348Z,72.90
2023-03-27T07:08:47.767Z,72.96
2023-03-27T07:11:17.049Z,72.59
2023-03-27T07:13:53.935Z,72.26
2023-03-27T07:16:26.126Z,71.57
2023-03-27T07:18:54.062Z,70.59
2023-03-27T07:21:21.759Z,70.16
2023-03-27T07:23:49.370Z,69.69
2023-03-27T07:26:27.122Z,68.92
2023-03-27T07:29:01.969Z,69.17
2023-03-27T07:31:49.100Z,68.55
2023-03-27T07:34:19.105Z,68.26
2023-03-27T07:37:05.294Z,68.80
2023-03-27T07:39:34.065Z,68.56
2023-03-27T07:42:02.028Z,68.67
2023-03-27T07:44:45.864Z,68.99
2023-03-27T07:47:14.883Z,68.68
2023-03-27T07:49:45.501Z,68.46
2023-03-27T07:52:16.613Z,68.59
2023-03-27T07:54:57.068Z,68.81
2023-03-27T07:57:31.600Z,67.34
2023-03-27T08:00:11.808Z,64.95
2023-03-27T08:02:52.245Z,64.03
2023-03-27T08:05:20.353Z,62.43
2023-03-27T08:08:04.052Z,61.87
2023-03-27T08:10:59.117Z,60.49
2023-03-27T08:13:30.639Z,58.92
2023-03-27T08:16:10.921Z,58.35
2023-03-27T08:18:39.139Z,56.72
2023-03-27T08:21:09.654Z,55.72
2023-03-27T08:23:39.677Z,54.54
2023-03-27T08:26:29.364Z,54.00
2023-03-27T08:29:00.488Z,53.18
2023-03-27T08:31:31.446Z,52.63
2023-03-27T08:34:05.060Z,51.88
2023-03-27T08:36:58.797Z,51.58
2023-03-27T08:39:36.860Z,50.65
2023-03-27T08:42:08.422Z,49.45
2023-03-27T08:44:39.176Z,49.56
2023-03-27T08:47:36.195Z,47.85
2023-03-27T08:50:42.779Z,47.69
2023-03-27T08:53:23.560Z,46.81
2023-03-27T08:55:51.657Z,46.58
2023-03-27T08:58:25.538Z,46.25
2023-03-27T09:01:26.498Z,45.00
2023-03-27T09:04:28.545Z,44.66
2023-03-27T09:06:56.688Z,45.38
2023-03-27T09:09:34.382Z,44.78
2023-03-27T09:12:14.948Z,42.94
2023-03-27T09:15:11.288Z,42.53
2023-03-27T09:17:54.844Z,42.10
2023-03-27T09:20:25.501Z,42.14
2023-03-27T09:23:02.116Z,41.28
2023-03-27T09:25:56.362Z,40.61
2023-03-27T09:29:25.726Z,39.43
2023-03-27T09:32:15.675Z,39.17
2023-03-27T09:34:45.215Z,39.45
2023-03-27T09:37:16.202Z,38.72
2023-03-27T09:39:50.309Z,37.65
2023-03-27T09:42:45.526Z,37.30
2023-03-27T09:45:13.704Z,36.93
2023-03-27T09:48:04.075Z,36.71
2023-03-27T09:50:47.623Z,36.67
2023-03-27T09:53:35.371Z,36.30
2023-03-27T09:56:18.060Z,35.53
2023-03-27T09:58:51.945Z,35.41
2023-03-27T10:01:34.713Z,35.32
2023-03-27T10:04:18.973Z,36.35
2023-03-27T10:07:08.495Z,35.15
2023-03-27T10:10:08.402Z,34.95
2023-03-27T10:12:57.315Z,35.52
2023-03-27T10:15:33.035Z,35.68
2023-03-27T10:18:04.851Z,34.62
2023-03-27T10:20:32.805Z,34.23
2023-03-27T10:23:07.051Z,33.88
2023-03-27T10:25:39.404Z,34.26
2023-03-27T10:28:29.271Z,33.17
2023-03-27T10:31:33.244Z,32.33
2023-03-27T10:34:33.909Z,32.50
2023-03-27T10:37:37.292Z,34.08
2023-03-27T10:40:37.080Z,33.91
2023-03-27T10:43:24.994Z,33.48
2023-03-27T10:46:14.943Z,33.70
2023-03-27T10:48:47.235Z,32.70
2023-03-27T10:51:33.106Z,31.75
2023-03-27T10:54:24.107Z,32.37
2023-03-27T10:57:03.406Z,31.02
2023-03-27T10:59:44.303Z,30.94
2023-03-27T11:03:00.345Z,30.24
2023-03-27T11:05:36.746Z,30.47
2023-03-27T11:08:22.185Z,29.81
2023-03-27T11:10:51.127Z,30.27
2023-03-27T11:13:38.649Z,28.66
2023-03-27T11:16:39.345Z,29.07
2023-03-27T11:19:34.005Z,30.26
2023-03-27T11:22:46.213Z,29.72
2023-03-27T11:25:41.144Z,30.20
2023-03-27T11:28:18.446Z,30.40
2023-03-27T11:30:56.018Z,29.71
2023-03-27T11:33:27.880Z,29.25
2023-03-27T11:36:06.056Z,29.03
2023-03-27T11:39:17.637Z,29.24
2023-03-27T11:41:52.445Z,29.06
2023-03-27T11:44:21.673Z,28.04
2023-03-27T11:47:41.080Z,28.69
2023-03-27T11:50:59.536Z,28.21
2023-03-27T11:53:30.521Z,28.36
2023-03-27T11:56:29.195Z,26.99
2023-03-27T11:59:20.622Z,27.10
2023-03-27T12:02:06.650Z,27.51
2023-03-27T12:04:59.660Z,27.57
2023-03-27T12:07:53.345Z,27.90
2023-03-27T12:10:37.744Z,26.59
2023-03-27T12:13:42.053Z,26.04
2023-03-27T12:16:48.131Z,27.16
2023-03-27T12:19:52.449Z,26.47
2023-03-27T12:22:47.771Z,27.35
2023-03-27T12:25:58.843Z,27.21
2023-03-27T12:28:56.932Z,27.36
2023-03-27T12:32:05.970Z,27.02
2023-03-27T12:34:50.368Z,27.31
2023-03-27T12:37:24.878Z,27.58
2023-03-27T12:39:56.912Z,27.67
2023-03-27T12:43:06.367Z,27.62
2023-03-27T12:45:38.773Z,27.36
2023-03-27T12:48:10.073Z,27.32
2023-03-27T12:50:56.340Z,26.73
2023-03-27T12:53:25.589Z,27.60
2023-03-27T12:56:10.736Z,26.55
2023-03-27T12:58:38.770Z,27.05
2023-03-27T13:01:51.517Z,26.74
2023-03-27T13:04:48.471Z,27.54
2023-03-27T13:07:38.232Z,28.27
2023-03-27T13:10:46.460Z,28.14
2023-03-27T13:13:20.751Z,29.02
2023-03-27T13:16:19.625Z,28.23
2023-03-27T13:19:06.450Z,27.86
2023-03-27T13:22:11.148Z,28.11
2023-03-27T13:25:00.082Z,28.00
2023-03-27T13:27:55.352Z,28.17
2023-03-27T13:30:52.771Z,27.80
2023-03-27T13:33:44.519Z,28.79
2023-03-27T13:36:24.112Z,28.17
2023-03-27T13:38:57.260Z,27.94
2023-03-27T13:41:44.016Z,27.48
2023-03-27T13:44:49.139Z,28.62
2023-03-27T13:47:39.211Z,28.76
2023-03-27T13:50:44.485Z,29.01
2023-03-27T13:53:30.441Z,29.72
2023-03-27T13:56:37.230Z,28.98
2023-03-27T13:59:44.387Z,28.29
2023-03-27T14:02:44.095Z,28.09
2023-03-27T14:05:24.220Z,29.29
2023-03-27T14:08:10.509Z,28.95
2023-03-27T14:11:24.484Z,29.47
2023-03-27T14:14:06.754Z,29.61
2023-03-27T14:16:59.427Z,28.92
2023-03-27T14:19:51.104Z,28.72
2023-03-27T14:22:28.080Z,29.00
2023-03-27T14:25:10.991Z,28.34
2023-03-27T14:27:51.763Z,28.76
2023-03-27T14:30:22.756Z,28.27
2023-03-27T14:33:10.342Z,29.05
2023-03-27T14:35:44.068Z,28.84
2023-03-27T14:38:26.552Z,28.93
2023-03-27T14:41:03.874Z,29.16
2023-03-27T14:43:50.178Z,30.07
2023-03-27T14:46:21.788Z,30.04
2023-03-27T14:48:59.847Z,29.53
2023-03-27T14:51:42.102Z,30.21
2023-03-27T14:54:28.865Z,29.84
2023-03-27T14:57:09.183Z,31.04
2023-03-27T14:59:46.874Z,31.13
2023-03-27T15:02:23.218Z,31.15
2023-03-27T15:05:02.943Z,32.10
2023-03-27T15:07:35.376Z,32.38
2023-03-27T15:10:21.152Z,32.53
2023-03-27T15:13:10.751Z,33.37
2023-03-27T15:15:47.057Z,33.80
2023-03-27T15:18:20.752Z,33.87
2023-03-27T15:20:50.886Z,33.84
2023-03-27T15:23:45.147Z,33.72
2023-03-27T15:26:24.634Z,33.78
2023-03-27T15:29:13.966Z,33.63
2023-03-27T15:31:44.551Z,34.66
2023-03-27T15:34:21.147Z,33.90
2023-03-27T15:36:55.774Z,34.52
2023-03-27T15:39:23.943Z,35.03
2023-03-27T15:41:56.026Z,35.59
2023-03-27T15:44:30.048Z,35.06
2023-03-27T15:46:59.450Z,35.26
2023-03-27T15:49:31.855Z,35.58
2023-03-27T15:52:21.015Z,35.73
2023-03-27T15:54:55.953Z,36.46
2023-03-27T15:57:23.869Z,36.42
2023-03-27T15:59:53.576Z,36.54
2023-03-27T16:02:25.273Z,37.05
2023-03-27T16:04:56.799Z,37.22
2023-03-27T16:07:47.347Z,37.41
2023-03-27T16:10:30.013Z,37.60
2023-03-27T16:13:02.647Z,38.07
2023-03-27T16:15:36.031Z,37.73
2023-03-27T16:18:32.112Z,38.38
2023-03-27T16:21:08.522Z,38.84
2023-03-27T16:23:37.372Z,39.00
2023-03-27T16:26:07.703Z,39.79
2023-03-27T16:28:35.761Z,39.31
2023-03-27T16:31:14.386Z,39.18
2023-03-27T16:33:46.215Z,39.94
2023-03-27T16:36:20.832Z,39.87
2023-03-27T16:38:48.587Z,40.57
2023-03-27T16:41:18.123Z,40.77
2023-03-27T16:43:46.204Z,40.78
2023-03-27T16:46:18.717Z,41.03
2023-03-27T16:48:46.416Z,41.00
2023-03-27T16:51:14.075Z,41.74
2023-03-27T16:53:41.787Z,41.71
2023-03-27T16:56:09.942Z,41.24
2023-03-27T16:58:38.489Z,42.20
2023-03-27T17:01:07.705Z,41.80
2023-03-27T17:03:37.548Z,42.82
2023-03-27T17:06:08.427Z,42.14
2023-03-27T17:08:37.292Z,42.52
2023-03-27T17:11:08.132Z,42.53
2023-03-27T17:13:36.718Z,42.99
2023-03-27T17:16:05.407Z,42.80
2023-03-27T17:18:34.560Z,43.34
2023-03-27T17:21:02.499Z,44.10
2023-03-27T17:23:30.090Z,44.32
2023-03-27T17:26:01.728Z,44.55
2023-03-27T17:28:30.186Z,44.80
2023-03-27T17:31:04.869Z,45.16
2023-03-27T17:33:33.996Z,45.82
2023-03-27T17:36:07.672Z,45.69
2023-03-27T17:38:35.326Z,46.92
2023-03-27T17:41:04.002Z,46.67
2023-03-27T17:43:32.278Z,46.31
2023-03-27T17:46:00.141Z,46.88
2023-03-27T17:48:28.093Z,47.91
2023-03-27T17:51:07.966Z,47.35
2023-03-27T17:53:39.626Z,47.88
2023-03-27T17:56:08.426Z,48.41
2023-03-27T17:58:37.167Z,48.32
2023-03-27T18:01:19.580Z,48.12
2023-03-27T18:03:48.198Z,48.50
2023-03-27T18:06:20.382Z,49.14
2023-03-27T18:08:48.045Z,50.09
2023-03-27T18:11:16.400Z,50.08
2023-03-27T18:13:44.917Z,49.39
2023-03-27T18:16:12.791Z,50.05
2023-03-27T18:18:40.504Z,50.35
2023-03-27T18:21:08.973Z,50.59
2023-03-27T18:23:45.924Z,50.87
2023-03-27T18:26:15.543Z,51.49
2023-03-27T18:28:43.424Z,51.90
2023-03-27T18:31:12.821Z,52.06
2023-03-27T18:33:40.579Z,51.94
2023-03-27T18:36:10.906Z,52.28
2023-03-27T18:38:42.318Z,52.40
2023-03-27T18:41:10.867Z,52.61
2023-03-27T18:43:38.537Z,53.00
2023-03-27T18:46:07.397Z,53.34
2023-03-27T18:48:35.864Z,53.47
2023-03-27T18:51:05.412Z,53.39
2023-03-27T18:53:33.388Z,53.35
2023-03-27T18:56:01.459Z,54.36
2023-03-27T18:58:54.955Z,54.12
2023-03-27T19:01:22.623Z,54.57
2023-03-27T19:03:51.767Z,54.76
2023-03-27T19:06:20.573Z,55.04
2023-03-27T19:08:51.301Z,55.02
2023-03-27T19:11:22.720Z,55.15
2023-03-27T19:14:08.777Z,55.47
2023-03-27T19:16:56.010Z,55.89
2023-03-27T19:19:43.902Z,55.99
2023-03-27T19:22:31.408Z,56.18
2023-03-27T19:25:18.475Z,56.80
2023-03-27T19:27:46.173Z,57.01
2023-03-27T19:30:14.602Z,56.87
2023-03-27T19:32:42.279Z,56.94
2023-03-27T19:35:10.024Z,57.31
2023-03-27T19:37:37.764Z,57.88
2023-03-27T19:40:06.000Z,58.07
2023-03-27T19:42:34.175Z,58.11
2023-03-27T19:45:01.916Z,58.24
2023-03-27T19:47:29.594Z,58.90
2023-03-27T19:49:58.026Z,58.72
2023-03-27T19:52:39.650Z,58.97
2023-03-27T19:55:07.827Z,58.83
2023-03-27T19:57:35.352Z,59.00
2023-03-27T20:00:06.449Z,58.79
2023-03-27T20:02:42.025Z,59.41
2023-03-27T20:05:09.912Z,59.76
2023-03-27T20:07:37.481Z,60.20
2023-03-27T20:10:06.102Z,60.02
2023-03-27T20:12:33.714Z,60.38
2023-03-27T20:15:10.469Z,60.70
2023-03-27T20:17:43.072Z,61.02
2023-03-27T20:20:11.537Z,60.56
2023-03-27T20:22:54.367Z,61.03
2023-03-27T20:25:25.544Z,61.38
2023-03-27T20:27:53.178Z,60.92
2023-03-27T20:30:20.974Z,61.61
2023-03-27T20:32:50.248Z,61.21
2023-03-27T20:35:24.472Z,61.03
2023-03-27T20:37:57.925Z,61.16
2023-03-27T20:40:29.356Z,61.75
2023-03-27T20:43:06.090Z,61.66
2023-03-27T20:45:33.843Z,61.37
2023-03-27T20:48:03.240Z,61.56
2023-03-27T20:50:35.390Z,61.68
2023-03-27T20:53:06.548Z,62.02
2023-03-27T20:55:39.265Z,62.62
2023-03-27T20:58:13.487Z,62.81
2023-03-27T21:00:43.768Z,62.82
2023-03-27T21:03:12.228Z,63.22
2023-03-27T21:05:41.409Z,62.67
2023-03-27T21:08:09.126Z,63.54
2023-03-27T21:10:37.211Z,63.61
2023-03-27T21:13:05.652Z,63.63
2023-03-27T21:15:34.205Z,63.90
2023-03-27T21:18:01.835Z,64.04
2023-03-27T21:20:30.259Z,64.34
2023-03-27T21:22:57.930Z,64.58
2023-03-27T21:25:25.589Z,64.79
2023-03-27T21:27:59.894Z,64.15
2023-03-27T21:30:47.050Z,63.95
2023-03-27T21:33:18.410Z,64.55
2023-03-27T21:35:47.460Z,65.38
2023-03-27T21:38:17.023Z,65.59
2023-03-27T21:40:47.425Z,65.32
2023-03-27T21:43:16.014Z,65.51
2023-03-27T21:45:43.679Z,65.35
2023-03-27T21:48:11.562Z,66.18
2023-03-27T21:50:39.156Z,65.74
2023-03-27T21:53:06.813Z,65.47
2023-03-27T21:55:34.916Z,65.41
2023-03-27T21:58:02.612Z,65.77
2023-03-27T22:00:30.142Z,66.04
2023-03-27T22:02:57.787Z,66.40
2023-03-27T22:05:25.516Z,66.28
2023-03-27T22:07:53.120Z,66.23
2023-03-27T22:10:21.032Z,66.45
2023-03-27T22:12:48.766Z,66.08
2023-03-27T22:15:16.487Z,65.88
2023-03-27T22:17:44.298Z,65.64
2023-03-27T22:20:12.199Z,65.63
2023-03-27T22:22:39.771Z,66.05
2023-03-27T22:25:07.836Z,65.37
2023-03-27T22:27:35.549Z,66.02
2023-03-27T22:30:03.603Z,66.05
2023-03-27T22:32:31.450Z,65.94
2023-03-27T22:34:59.311Z,65.59
2023-03-27T22:37:26.830Z,65.55
2023-03-27T22:39:54.367Z,66.09
2023-03-27T22:42:21.996Z,65.60
2023-03-27T22:44:49.505Z,66.07
2023-03-27T22:47:17.194Z,65.95
2023-03-27T22:49:44.750Z,65.67
2023-03-27T22:52:12.401Z,66.47
2023-03-27T22:54:40.082Z,66.10
2023-03-27T22:57:07.753Z,66.36
2023-03-27T22:59:35.669Z,66.10
2023-03-27T23:02:03.342Z,66.18
2023-03-27T23:04:31.345Z,66.79
2023-03-27T23:07:01.456Z,66.25
2023-03-27T23:09:29.202Z,66.39
2023-03-27T23:11:56.782Z,66.58
2023-03-27T23:14:24.446Z,66.35
2023-03-27T23:16:52.142Z,66.86
2023-03-27T23:19:19.714Z,67.09
2023-03-27T23:21:47.325Z,66.35
2023-03-27T23:24:15.285Z,67.08
2023-03-27T23:26:42.794Z,66.44
2023-03-27T23:29:11.215Z,66.81
2023-03-27T23:31:38.805Z,66.51
2023-03-27T23:34:06.364Z,66.64
2023-03-27T23:36:33.952Z,66.89
2023-03-27T23:39:01.580Z,67.25
2023-03-27T23:41:29.587Z,67.14
2023-03-27T23:43:57.102Z,67.12
2023-03-27T23:46:24.754Z,67.31
2023-03-27T23:48:52.446Z,66.75
2023-03-27T23:51:20.042Z,67.74
2023-03-27T23:53:47.699Z,67.41
2023-03-27T23:56:15.647Z,67.17
2023-03-27T23:58:43.456Z,67.58
